createdAt,value
2018-07-12T03:01:28.571Z,11.70
2018-07-12T03:02:28.617Z,16.70
2018-07-12T03:03:33.185Z,16.10
2018-07-12T03:04:27.606Z,16.00
2018-07-12T03:38:35.416Z,16.50
2018-07-12T03:43:20.999Z,16.30
2018-07-12T03:44:12.428Z,16.40
2018-07-12T03:45:07.365Z,16.80
2018-07-12T03:46:09.521Z,16.40
2018-07-12T03:52:11.052Z,15.30
2018-07-12T03:53:10.458Z,15.30
2018-07-12T03:54:10.352Z,16.10
2018-07-12T03:55:10.146Z,15.70
2018-07-12T03:56:11.708Z,15.10
2018-07-12T03:57:10.648Z,15.10
2018-07-12T03:58:11.241Z,15.40
2018-07-12T03:59:11.068Z,15.40
2018-07-12T04:00:08.805Z,14.30
2018-07-12T04:01:09.830Z,15.30
2018-07-12T04:02:09.010Z,15.10
2018-07-12T04:03:09.267Z,15.50
2018-07-12T04:04:09.518Z,14.70
2018-07-12T04:06:58.132Z,14.50
2018-07-12T04:07:59.023Z,14.20
2018-07-12T04:08:58.802Z,14.40
2018-07-12T04:09:59.670Z,14.70
2018-07-12T04:10:59.161Z,14.20
2018-07-12T04:11:58.933Z,14.60
2018-07-12T04:12:57.322Z,14.60
2018-07-12T04:13:57.352Z,14.60
2018-07-12T04:14:57.479Z,14.90
2018-07-12T04:15:57.583Z,14.80
2018-07-12T04:16:57.833Z,14.50
2018-07-12T04:17:58.119Z,14.20
2018-07-12T04:19:00.351Z,14.60
2018-07-12T04:19:59.231Z,15.60
2018-07-12T04:21:23.703Z,14.60
2018-07-12T04:22:54.574Z,14.20
2018-07-12T04:23:01.297Z,15.00
2018-07-12T04:24:02.229Z,15.60
2018-07-12T04:25:02.978Z,14.80
2018-07-12T04:26:02.532Z,13.90
2018-07-12T04:27:02.204Z,14.30
2018-07-12T04:49:53.659Z,14.50
2018-07-12T04:52:20.205Z,14.60
2018-07-12T04:55:01.334Z,15.40
2018-07-12T04:56:02.152Z,15.30
2018-07-12T04:57:04.422Z,14.20
2018-07-12T04:58:03.013Z,14.90
2018-07-12T04:59:06.231Z,15.40
2018-07-12T05:36:23.649Z,14.80
2018-07-12T05:37:24.189Z,14.50
2018-07-12T05:38:23.661Z,14.90
2018-07-12T05:39:24.281Z,14.50
2018-07-12T05:53:53.235Z,15.40
2018-07-12T05:54:58.196Z,14.30
2018-07-12T05:55:56.075Z,14.40
2018-07-12T05:56:56.160Z,14.20
2018-07-12T05:57:57.312Z,13.90
2018-07-12T06:28:21.351Z,11.40
2018-07-12T06:29:09.850Z,11.40
2018-07-12T06:30:19.419Z,11.40
2018-07-12T06:31:10.101Z,11.10
2018-07-12T06:32:12.106Z,11.00
2018-07-12T06:35:24.727Z,10.30
2018-07-12T06:36:25.580Z,10.40
2018-07-12T06:37:35.348Z,9.20
2018-07-12T06:54:58.181Z,8.30
2018-07-12T06:59:13.550Z,7.90
2018-07-12T07:05:48.319Z,7.20
2018-07-12T07:09:05.843Z,7.30
2018-07-12T07:10:08.488Z,6.90
2018-07-12T07:11:43.824Z,6.50
2018-07-12T07:26:35.925Z,6.50
2018-07-12T07:27:37.878Z,5.30
2018-07-12T07:28:42.618Z,4.70
2018-07-12T07:33:12.254Z,5.00
2018-07-12T07:35:08.007Z,4.80
2018-07-12T07:36:11.094Z,5.00
2018-07-12T07:38:36.261Z,5.00
2018-07-12T07:43:24.498Z,4.60
2018-07-12T07:52:13.193Z,3.90
2018-07-12T07:53:58.559Z,4.00
2018-07-12T07:58:05.961Z,4.30
2018-07-12T08:12:07.566Z,4.00
2018-07-12T08:35:07.179Z,2.80
2018-07-12T08:37:07.127Z,2.90
2018-07-12T08:38:24.633Z,2.70
2018-07-12T08:41:06.770Z,3.10
2018-07-12T08:43:13.822Z,2.90
2018-07-12T08:44:10.884Z,2.70
2018-07-12T08:45:09.796Z,2.60
2018-07-12T08:46:07.595Z,2.80
2018-07-12T08:47:09.783Z,2.40
2018-07-12T08:59:21.118Z,2.90
2018-07-12T09:00:22.144Z,2.90
2018-07-12T09:01:20.611Z,3.00
2018-07-12T09:02:20.705Z,3.10
2018-07-12T09:03:22.968Z,2.60
2018-07-12T09:04:20.835Z,2.80
2018-07-12T09:06:18.339Z,2.70
2018-07-12T09:07:17.683Z,2.80
2018-07-12T09:08:17.776Z,3.00
2018-07-12T09:09:18.070Z,3.30
2018-07-12T09:10:18.128Z,3.00
2018-07-12T09:11:18.194Z,3.20
2018-07-12T09:12:18.439Z,3.50
2018-07-12T09:13:18.468Z,4.00
2018-07-12T09:14:18.831Z,3.60
2018-07-12T09:15:19.005Z,3.70
2018-07-12T09:16:19.440Z,3.50
2018-07-12T09:17:19.448Z,3.20
2018-07-12T09:18:20.479Z,3.10
2018-07-12T09:19:19.798Z,3.10
2018-07-12T09:20:20.114Z,3.10
2018-07-12T09:21:20.211Z,3.10
2018-07-12T09:22:20.304Z,3.10
2018-07-12T09:23:20.446Z,2.60
2018-07-12T09:24:20.612Z,2.80
2018-07-12T09:25:21.239Z,2.80
2018-07-12T09:26:21.817Z,2.90
2018-07-12T09:27:21.211Z,2.60
2018-07-12T09:28:21.315Z,2.60
2018-07-12T09:29:21.788Z,2.60
2018-07-12T09:30:22.033Z,2.60
2018-07-12T09:31:21.933Z,2.80
2018-07-12T09:32:22.546Z,2.80
2018-07-12T09:33:22.547Z,2.40
2018-07-12T09:34:22.456Z,2.50
2018-07-12T09:35:22.554Z,2.80
2018-07-12T09:36:23.594Z,2.90
2018-07-12T09:37:23.076Z,3.00
2018-07-12T09:38:23.365Z,2.70
2018-07-12T09:42:06.335Z,2.40
2018-07-12T09:42:51.932Z,2.40
2018-07-12T09:43:57.732Z,2.30
2018-07-12T09:44:55.608Z,2.60
2018-07-12T09:47:01.620Z,2.30
2018-07-12T09:48:02.595Z,2.40
2018-07-12T09:49:01.468Z,2.40
2018-07-12T09:50:00.590Z,2.50
2018-07-12T09:51:00.557Z,3.00
2018-07-12T09:52:00.534Z,3.40
2018-07-12T09:52:59.760Z,3.80
2018-07-12T09:53:58.764Z,3.90
2018-07-12T09:54:58.692Z,4.00
2018-07-12T09:55:59.041Z,4.40
2018-07-12T09:56:59.292Z,3.60
2018-07-12T09:57:59.400Z,3.80
2018-07-12T09:59:00.321Z,3.70
2018-07-12T09:59:59.901Z,3.90
2018-07-12T10:00:59.872Z,3.90
2018-07-12T10:02:00.360Z,3.90
2018-07-12T10:03:00.549Z,4.30
2018-07-12T10:04:00.652Z,4.00
2018-07-12T10:05:00.772Z,3.80
2018-07-12T10:06:01.452Z,4.00
2018-07-12T10:07:01.503Z,3.80
2018-07-12T10:08:01.369Z,3.30
2018-07-12T10:09:01.532Z,3.60
2018-07-12T10:10:01.751Z,3.80
2018-07-12T10:11:01.828Z,4.00
2018-07-12T10:12:02.662Z,3.70
2018-07-12T10:13:02.561Z,3.70
2018-07-12T10:14:02.633Z,3.40
2018-07-12T10:15:04.119Z,3.30
2018-07-12T10:16:02.869Z,3.80
2018-07-12T10:17:03.499Z,3.30
2018-07-12T10:18:03.416Z,3.50
2018-07-12T10:19:03.306Z,3.10
2018-07-12T10:21:05.707Z,3.40
2018-07-12T10:22:04.080Z,3.20
2018-07-12T10:38:28.196Z,2.80
2018-07-12T11:52:12.760Z,2.40
2018-07-12T12:07:06.452Z,2.30
2018-07-12T12:08:17.017Z,2.00
2018-07-12T12:11:40.983Z,2.30
2018-07-12T12:14:44.107Z,2.20
2018-07-12T12:15:36.435Z,2.30
2018-07-12T12:16:49.105Z,2.40
2018-07-12T12:17:48.818Z,2.90
2018-07-12T12:18:36.184Z,2.40
2018-07-12T12:20:38.937Z,2.20
2018-07-12T12:21:38.452Z,2.30
2018-07-12T12:22:41.456Z,2.30
2018-07-12T12:23:34.883Z,2.10
2018-07-12T12:24:34.938Z,2.40
2018-07-12T12:25:35.828Z,2.60
2018-07-12T12:26:34.880Z,2.60
2018-07-12T12:27:35.475Z,2.40
2018-07-12T12:28:35.362Z,2.40
2018-07-12T12:29:35.680Z,2.50
2018-07-12T12:30:35.700Z,2.80
2018-07-12T12:31:36.250Z,2.40
2018-07-12T12:32:36.364Z,2.70
2018-07-12T12:33:36.345Z,2.90
2018-07-12T12:34:36.446Z,2.70
2018-07-12T12:35:36.721Z,2.60
2018-07-12T12:36:37.617Z,2.80
2018-07-12T12:37:37.024Z,2.60
2018-07-12T12:38:37.273Z,2.40
2018-07-12T12:39:37.574Z,2.40
2018-07-12T12:40:37.439Z,2.50
2018-07-12T12:41:37.791Z,2.60
2018-07-12T12:42:39.647Z,2.70
2018-07-12T12:43:38.606Z,2.80
2018-07-12T12:44:39.222Z,2.70
2018-07-12T12:45:39.523Z,2.60
2018-07-12T12:46:42.268Z,2.40
2018-07-12T12:47:39.530Z,2.50
2018-07-12T12:48:39.009Z,2.40
2018-07-12T12:49:40.065Z,2.40
2018-07-12T12:50:40.432Z,2.50
2018-07-12T12:51:39.795Z,2.30
2018-07-12T12:52:39.825Z,2.10
2018-07-12T12:53:42.494Z,2.30
2018-07-12T12:54:40.278Z,2.30
2018-07-12T12:55:40.690Z,2.30
2018-07-12T12:56:40.878Z,2.30
2018-07-12T12:57:40.926Z,2.50
2018-07-12T12:58:41.676Z,2.40
2018-07-12T12:59:59.888Z,2.50
2018-07-12T13:01:44.354Z,2.60
2018-07-12T13:03:39.584Z,2.70
2018-07-12T13:03:46.744Z,2.30
2018-07-12T13:04:47.790Z,2.60
2018-07-12T13:06:46.990Z,2.60
2018-07-12T13:07:45.916Z,2.50
2018-07-12T13:08:49.944Z,2.60
2018-07-12T13:10:26.346Z,2.90
2018-07-12T13:12:06.193Z,2.70
2018-07-12T13:14:22.563Z,2.90
2018-07-12T13:16:49.213Z,2.60
2018-07-12T13:17:48.662Z,2.60
2018-07-12T13:18:46.811Z,2.80
2018-07-12T13:19:44.844Z,2.50
2018-07-12T13:20:45.182Z,2.70
2018-07-12T13:21:45.203Z,2.70
2018-07-12T13:22:45.800Z,2.70
2018-07-12T13:23:45.757Z,2.80
2018-07-12T13:24:45.701Z,2.60
2018-07-12T13:25:46.112Z,2.60
2018-07-12T13:26:46.135Z,2.80
2018-07-12T13:27:46.492Z,2.70
2018-07-12T13:28:46.536Z,2.70
2018-07-12T13:29:48.416Z,2.70
2018-07-12T13:30:46.864Z,2.70
2018-07-12T13:32:47.157Z,2.60
2018-07-12T13:33:47.397Z,2.60
2018-07-12T13:34:47.511Z,2.60
2018-07-12T13:35:47.930Z,2.70
2018-07-12T13:36:48.017Z,2.70
2018-07-12T13:37:48.104Z,2.50
2018-07-12T13:38:48.257Z,2.70
2018-07-12T13:39:48.390Z,2.70
2018-07-12T13:40:48.697Z,2.60
2018-07-12T13:41:48.959Z,2.50
2018-07-12T13:42:49.214Z,2.50
2018-07-12T13:43:49.141Z,2.40
2018-07-12T13:44:49.506Z,2.50
2018-07-12T13:45:49.491Z,2.60
2018-07-12T13:46:49.788Z,2.50
2018-07-12T13:47:49.872Z,2.50
2018-07-12T13:48:50.216Z,2.50
2018-07-12T13:49:50.480Z,2.60
2018-07-12T13:50:50.406Z,2.70
2018-07-12T13:51:50.902Z,2.80
2018-07-12T13:52:50.867Z,2.80
2018-07-12T13:53:51.102Z,2.50
2018-07-12T13:54:51.095Z,2.50
2018-07-12T13:55:51.242Z,2.70
2018-07-12T13:56:51.542Z,2.80
2018-07-12T13:57:51.576Z,2.70
2018-07-12T13:58:52.283Z,2.90
2018-07-12T13:59:52.155Z,2.60
2018-07-12T14:00:52.381Z,2.60
2018-07-12T14:01:52.607Z,2.90
2018-07-12T14:02:53.023Z,2.60
2018-07-12T14:03:53.229Z,2.50
2018-07-12T14:04:53.285Z,2.90
2018-07-12T14:05:53.462Z,2.50
2018-07-12T14:06:53.729Z,2.70
2018-07-12T14:07:53.849Z,2.80
2018-07-12T14:08:53.880Z,2.60
2018-07-12T14:09:54.356Z,2.80
2018-07-12T14:10:54.339Z,2.70
2018-07-12T14:11:54.553Z,2.70
2018-07-12T14:12:54.795Z,2.90
2018-07-12T14:13:54.809Z,2.90
2018-07-12T14:14:55.333Z,2.80
2018-07-12T14:15:55.027Z,2.90
2018-07-12T14:16:55.325Z,2.50
2018-07-12T14:17:55.654Z,3.20
2018-07-12T14:18:56.094Z,2.50
2018-07-12T14:19:56.081Z,2.80
2018-07-12T14:20:56.418Z,2.80
2018-07-12T14:21:56.483Z,2.70
2018-07-12T14:22:56.895Z,2.80
2018-07-12T14:23:56.870Z,2.70
2018-07-12T14:24:57.161Z,2.90
2018-07-12T14:25:57.302Z,2.90
2018-07-12T14:26:57.750Z,2.50
2018-07-12T14:27:57.954Z,3.00
2018-07-12T14:28:58.057Z,2.70
2018-07-12T14:29:58.317Z,2.90
2018-07-12T14:30:58.568Z,2.90
2018-07-12T14:31:58.620Z,3.00
2018-07-12T14:32:58.817Z,3.10
2018-07-12T14:33:59.027Z,2.90
2018-07-12T14:34:59.105Z,3.10
2018-07-12T14:35:59.251Z,3.30
2018-07-12T14:36:59.394Z,3.00
2018-07-12T14:37:59.891Z,3.00
2018-07-12T14:39:00.051Z,3.20
2018-07-12T14:40:00.302Z,3.40
2018-07-12T14:41:00.619Z,3.10
2018-07-12T14:42:00.547Z,3.40
2018-07-12T14:43:00.820Z,3.20
2018-07-12T14:44:01.081Z,3.40
2018-07-12T14:45:01.198Z,3.40
2018-07-12T14:46:01.477Z,3.40
2018-07-12T14:47:01.687Z,3.60
2018-07-12T14:48:01.926Z,3.20
2018-07-12T14:49:01.916Z,3.50
2018-07-12T14:50:02.212Z,3.00
2018-07-12T14:51:03.011Z,3.80
2018-07-12T14:52:02.587Z,3.30
2018-07-12T14:53:02.749Z,3.40
2018-07-12T14:54:02.874Z,3.40
2018-07-12T14:55:03.243Z,3.70
2018-07-12T14:56:03.366Z,3.40
2018-07-12T14:57:03.861Z,3.50
2018-07-12T14:58:03.830Z,3.50
2018-07-12T14:59:03.947Z,3.60
2018-07-12T15:00:04.187Z,3.60
2018-07-12T15:01:04.317Z,3.40
2018-07-12T15:02:04.598Z,3.40
2018-07-12T15:03:04.583Z,3.10
2018-07-12T15:04:05.088Z,3.40
2018-07-12T15:05:05.252Z,3.20
2018-07-12T15:06:05.579Z,3.30
2018-07-12T15:07:05.198Z,3.70
2018-07-12T15:08:05.432Z,3.60
2018-07-12T15:09:05.728Z,3.30
2018-07-12T15:10:06.112Z,3.60
2018-07-12T15:11:06.423Z,3.40
2018-07-12T15:12:06.341Z,3.40
2018-07-12T15:13:06.416Z,3.40
2018-07-12T15:14:06.580Z,3.70
2018-07-12T15:15:06.635Z,3.50
2018-07-12T15:16:07.038Z,3.60
2018-07-12T15:17:07.435Z,3.30
2018-07-12T15:18:07.152Z,3.40
2018-07-12T15:19:07.861Z,3.50
2018-07-12T15:20:07.759Z,3.60
2018-07-12T15:21:07.925Z,3.80
2018-07-12T15:22:08.061Z,3.40
2018-07-12T15:23:08.195Z,3.70
2018-07-12T15:24:08.483Z,3.80
2018-07-12T15:25:09.122Z,3.60
2018-07-12T15:26:08.899Z,3.50
2018-07-12T15:27:09.042Z,3.50
2018-07-12T15:28:09.519Z,3.40
2018-07-12T15:29:09.131Z,3.30
2018-07-12T15:30:09.648Z,3.10
2018-07-12T21:36:41.098Z,5.60
2018-07-12T21:39:11.431Z,5.00
